createdAt,value
2022-09-28T00:01:19.914Z,10.60
2022-09-28T00:03:49.253Z,10.60
2022-09-28T00:06:19.537Z,10.60
2022-09-28T00:08:47.253Z,10.50
2022-09-28T00:11:15.563Z,10.50
2022-09-28T00:13:44.560Z,10.50
2022-09-28T00:16:17.261Z,10.50
2022-09-28T00:18:45.672Z,10.50
2022-09-28T00:21:19.023Z,10.50
2022-09-28T00:24:05.337Z,10.40
2022-09-28T00:26:33.994Z,10.40
2022-09-28T00:29:02.624Z,10.40
2022-09-28T00:31:32.783Z,10.40
2022-09-28T00:34:02.495Z,10.40
2022-09-28T00:36:31.502Z,10.30
2022-09-28T00:38:59.609Z,10.30
2022-09-28T00:41:28.315Z,10.30
2022-09-28T00:44:26.929Z,10.30
2022-09-28T00:47:14.790Z,10.30
2022-09-28T00:50:01.172Z,10.20
2022-09-28T00:52:38.387Z,10.20
2022-09-28T00:55:11.445Z,10.20
2022-09-28T00:57:42.369Z,10.20
2022-09-28T01:00:11.593Z,10.10
2022-09-28T01:02:40.398Z,10.10
2022-09-28T01:05:10.408Z,10.10
2022-09-28T01:07:38.917Z,10.10
2022-09-28T01:10:07.342Z,10.10
2022-09-28T01:12:34.883Z,10.10
2022-09-28T01:15:03.702Z,10.00
2022-09-28T01:17:40.063Z,10.00
2022-09-28T01:20:27.283Z,10.00
2022-09-28T01:23:09.381Z,10.00
2022-09-28T01:26:10.097Z,9.90
2022-09-28T01:28:38.171Z,10.20
2022-09-28T01:31:09.125Z,10.00
2022-09-28T01:33:46.322Z,9.90
2022-09-28T01:36:43.833Z,10.00
2022-09-28T01:39:15.565Z,9.90
2022-09-28T01:41:46.707Z,9.80
2022-09-28T01:44:16.149Z,9.80
2022-09-28T01:46:48.368Z,9.80
2022-09-28T01:49:27.468Z,9.80
2022-09-28T01:52:02.682Z,9.80
2022-09-28T01:54:44.963Z,9.80
2022-09-28T01:57:29.944Z,9.80
2022-09-28T02:00:08.454Z,9.70
2022-09-28T02:02:50.161Z,9.70
2022-09-28T02:05:42.078Z,9.70
2022-09-28T02:08:31.134Z,9.70
2022-09-28T02:11:07.943Z,9.70
2022-09-28T02:14:01.057Z,9.70
2022-09-28T02:16:36.497Z,9.70
2022-09-28T02:19:05.460Z,9.60
2022-09-28T02:22:07.299Z,9.60
2022-09-28T02:24:50.780Z,9.60
2022-09-28T02:27:48.582Z,9.50
2022-09-28T02:30:17.930Z,9.60
2022-09-28T02:32:49.810Z,9.60
2022-09-28T02:35:19.753Z,9.60
2022-09-28T02:37:47.345Z,9.60
2022-09-28T02:40:16.527Z,9.60
2022-09-28T02:42:55.008Z,9.50
2022-09-28T02:45:49.876Z,9.60
2022-09-28T02:48:43.868Z,9.50
2022-09-28T02:51:22.254Z,9.50
2022-09-28T02:54:11.979Z,9.50
2022-09-28T02:56:50.913Z,9.50
2022-09-28T02:59:43.954Z,9.40
2022-09-28T03:02:32.184Z,9.40
2022-09-28T03:05:23.331Z,9.40
2022-09-28T03:07:59.299Z,9.40
2022-09-28T03:10:41.770Z,9.40
2022-09-28T03:13:09.811Z,9.40
2022-09-28T03:15:40.410Z,9.40
2022-09-28T03:18:07.857Z,9.40
2022-09-28T03:20:35.400Z,9.30
2022-09-28T03:23:23.939Z,9.40
2022-09-28T03:25:51.771Z,9.30
2022-09-28T03:28:19.470Z,9.30
2022-09-28T03:30:48.447Z,9.30
2022-09-28T03:33:16.149Z,9.40
2022-09-28T03:35:48.038Z,9.30
2022-09-28T03:38:20.098Z,9.30
2022-09-28T03:40:59.364Z,9.30
2022-09-28T03:43:31.093Z,9.30
2022-09-28T03:46:01.866Z,9.20
2022-09-28T03:48:33.823Z,9.20
2022-09-28T03:51:09.151Z,9.20
2022-09-28T03:53:37.421Z,9.20
2022-09-28T03:56:06.713Z,9.20
2022-09-28T03:58:34.596Z,9.20
2022-09-28T04:01:04.433Z,9.20
2022-09-28T04:03:31.934Z,9.10
2022-09-28T04:06:00.058Z,9.20
2022-09-28T04:08:28.093Z,9.10
2022-09-28T04:11:00.155Z,9.10
2022-09-28T04:13:29.161Z,9.10
2022-09-28T04:15:59.177Z,9.10
2022-09-28T04:18:28.726Z,9.10
2022-09-28T04:21:17.117Z,9.00
2022-09-28T04:23:48.758Z,9.00
2022-09-28T04:26:28.352Z,9.00
2022-09-28T04:29:16.022Z,9.00
2022-09-28T04:31:57.442Z,9.00
2022-09-28T04:34:41.881Z,9.00
2022-09-28T04:37:11.842Z,8.90
2022-09-28T04:39:43.938Z,8.90
2022-09-28T04:42:13.990Z,9.00
2022-09-28T04:44:41.349Z,8.90
2022-09-28T04:47:10.175Z,8.90
2022-09-28T04:49:52.990Z,8.90
2022-09-28T04:52:27.228Z,8.90
2022-09-28T04:54:54.770Z,8.90
2022-09-28T04:57:22.287Z,8.90
2022-09-28T04:59:49.786Z,8.90
2022-09-28T05:02:18.813Z,8.90
2022-09-28T05:05:11.634Z,8.80
2022-09-28T05:08:04.746Z,8.80
2022-09-28T05:10:32.250Z,8.80
2022-09-28T05:13:02.354Z,8.80
2022-09-28T05:15:30.972Z,8.80
2022-09-28T05:17:58.442Z,8.80
2022-09-28T05:20:41.762Z,8.80
2022-09-28T05:23:11.414Z,8.80
2022-09-28T05:25:40.021Z,8.80
2022-09-28T05:28:25.108Z,8.80
2022-09-28T05:31:32.341Z,8.80
2022-09-28T05:34:38.465Z,8.70
2022-09-28T05:37:06.096Z,8.70
2022-09-28T05:39:33.618Z,8.70
2022-09-28T05:42:01.736Z,8.70
2022-09-28T05:44:30.388Z,8.70
2022-09-28T05:46:57.846Z,8.70
2022-09-28T05:49:25.222Z,8.70
2022-09-28T05:51:52.648Z,8.70
2022-09-28T05:54:21.192Z,8.70
2022-09-28T05:56:48.921Z,8.70
2022-09-28T05:59:17.173Z,8.60
2022-09-28T06:01:44.772Z,8.70
2022-09-28T06:04:12.913Z,8.70
2022-09-28T06:06:43.128Z,8.70
2022-09-28T06:09:10.905Z,8.70
2022-09-28T06:12:01.849Z,8.60
2022-09-28T06:14:49.794Z,8.70
2022-09-28T06:17:17.186Z,8.60
2022-09-28T06:19:49.759Z,8.60
2022-09-28T06:22:26.068Z,8.60
2022-09-28T06:25:04.406Z,8.60
2022-09-28T06:27:31.877Z,8.60
2022-09-28T06:30:00.818Z,8.60
2022-09-28T06:32:29.786Z,8.70
2022-09-28T06:34:57.829Z,8.70
2022-09-28T06:37:27.704Z,8.70
2022-09-28T06:39:56.390Z,8.70
2022-09-28T06:42:24.734Z,8.70
2022-09-28T06:45:11.353Z,8.70
2022-09-28T06:48:05.321Z,8.70
2022-09-28T06:50:41.013Z,8.70
2022-09-28T06:53:28.431Z,8.80
2022-09-28T06:56:16.119Z,8.80
2022-09-28T06:58:43.624Z,8.80
2022-09-28T07:01:12.052Z,8.80
2022-09-28T07:03:54.869Z,8.90
2022-09-28T07:06:50.527Z,8.90
2022-09-28T07:09:41.524Z,8.90
2022-09-28T07:12:21.829Z,9.00
2022-09-28T07:14:59.653Z,9.00
2022-09-28T07:17:29.301Z,9.00
2022-09-28T07:20:08.743Z,9.10
2022-09-28T07:22:43.391Z,9.10
2022-09-28T07:25:16.071Z,9.10
2022-09-28T07:27:59.749Z,9.20
2022-09-28T07:30:36.579Z,9.20
2022-09-28T07:33:12.547Z,9.20
2022-09-28T07:35:55.536Z,9.30
2022-09-28T07:38:30.422Z,9.30
2022-09-28T07:41:14.043Z,9.40
2022-09-28T07:43:46.191Z,9.40
2022-09-28T07:46:13.816Z,9.50
2022-09-28T07:48:52.702Z,9.50
2022-09-28T07:51:25.491Z,9.60
2022-09-28T07:54:11.583Z,9.60
2022-09-28T07:56:53.521Z,9.70
2022-09-28T07:59:38.309Z,9.80
2022-09-28T08:02:41.640Z,9.80
2022-09-28T08:05:09.988Z,9.90
2022-09-28T08:07:38.440Z,9.90
2022-09-28T08:10:09.843Z,10.00
2022-09-28T08:13:05.468Z,10.10
2022-09-28T08:15:53.946Z,10.10
2022-09-28T08:18:41.875Z,10.20
2022-09-28T08:21:29.045Z,10.30
2022-09-28T08:23:56.737Z,10.40
2022-09-28T08:26:24.618Z,10.40
2022-09-28T08:28:52.733Z,10.50
2022-09-28T08:31:49.379Z,10.50
2022-09-28T08:34:42.455Z,10.60
2022-09-28T08:37:20.689Z,10.70
2022-09-28T08:40:21.872Z,10.80
2022-09-28T08:43:44.830Z,10.90
2022-09-28T08:46:29.188Z,11.00
2022-09-28T08:49:31.127Z,11.10
2022-09-28T08:52:28.298Z,11.10
2022-09-28T08:55:28.714Z,11.20
2022-09-28T08:58:13.985Z,11.30
2022-09-28T09:00:47.537Z,11.40
2022-09-28T09:03:32.467Z,11.50
2022-09-28T09:06:18.761Z,11.60
2022-09-28T09:09:13.905Z,11.80
2022-09-28T09:11:58.422Z,11.80
2022-09-28T09:14:59.122Z,12.00
2022-09-28T09:18:01.815Z,12.10
2022-09-28T09:20:59.013Z,12.20
2022-09-28T09:23:37.337Z,12.30
2022-09-28T09:26:21.311Z,12.40
2022-09-28T09:29:28.104Z,12.50
2022-09-28T09:32:22.570Z,12.60
2022-09-28T09:35:37.581Z,12.70
2022-09-28T09:38:52.213Z,12.90
2022-09-28T09:41:58.594Z,13.00
2022-09-28T09:45:22.527Z,13.10
2022-09-28T09:48:15.892Z,13.30
2022-09-28T09:50:54.081Z,13.40
2022-09-28T09:53:36.107Z,13.50
2022-09-28T09:56:13.019Z,13.70
2022-09-28T09:59:06.683Z,13.80
2022-09-28T10:01:40.594Z,13.90
2022-09-28T10:04:41.640Z,13.90
2022-09-28T10:07:29.810Z,14.10
2022-09-28T10:10:02.310Z,14.20
2022-09-28T10:12:41.569Z,14.30
2022-09-28T10:15:15.448Z,14.40
2022-09-28T10:17:55.661Z,14.50
2022-09-28T10:20:45.039Z,14.50
2022-09-28T10:23:36.748Z,14.60
2022-09-28T10:26:10.186Z,14.80
2022-09-28T10:28:48.318Z,14.90
2022-09-28T10:31:38.167Z,14.90
2022-09-28T10:34:14.687Z,15.10
2022-09-28T10:36:51.527Z,15.20
2022-09-28T10:39:32.930Z,15.30
2022-09-28T10:42:08.748Z,15.40
2022-09-28T10:44:50.583Z,15.50
2022-09-28T10:47:35.553Z,15.60
2022-09-28T10:50:21.121Z,15.70
2022-09-28T10:52:49.848Z,15.90
2022-09-28T10:55:57.829Z,16.00
2022-09-28T10:58:37.062Z,16.10
2022-09-28T11:01:31.226Z,16.10
2022-09-28T11:04:05.328Z,16.20
2022-09-28T11:06:37.434Z,16.20
2022-09-28T11:09:26.150Z,16.30
2022-09-28T11:12:01.441Z,16.40
2022-09-28T11:14:42.487Z,16.40
2022-09-28T11:17:28.746Z,16.50
2022-09-28T11:20:27.418Z,16.60
2022-09-28T11:23:00.576Z,16.60
2022-09-28T11:25:34.162Z,16.60
2022-09-28T11:28:04.546Z,16.60
2022-09-28T11:30:38.831Z,16.60
2022-09-28T11:33:46.839Z,16.60
2022-09-28T11:36:54.994Z,16.60
2022-09-28T11:39:39.517Z,16.70
2022-09-28T11:42:18.639Z,16.60
2022-09-28T11:44:49.024Z,16.60
2022-09-28T11:47:35.497Z,16.60
2022-09-28T11:50:24.405Z,16.70
2022-09-28T11:53:11.654Z,16.70
2022-09-28T11:55:45.715Z,16.80
2022-09-28T11:58:35.385Z,16.70
2022-09-28T12:01:42.655Z,16.70
2022-09-28T12:04:56.947Z,16.70
2022-09-28T12:07:32.603Z,16.70
2022-09-28T12:10:27.080Z,16.70
2022-09-28T12:13:17.367Z,16.80
2022-09-28T12:16:38.779Z,16.80
2022-09-28T12:19:08.172Z,16.80
2022-09-28T12:21:38.777Z,16.80
2022-09-28T12:24:27.314Z,16.90
2022-09-28T12:27:09.608Z,17.00
2022-09-28T12:29:57.117Z,17.00
2022-09-28T12:32:38.996Z,17.10
2022-09-28T12:35:16.210Z,17.10
2022-09-28T12:38:16.111Z,17.10
2022-09-28T12:40:55.636Z,17.20
2022-09-28T12:43:49.887Z,17.20
2022-09-28T12:46:36.656Z,17.20
2022-09-28T12:55:36.098Z,17.30
2022-09-28T12:58:21.728Z,17.30
2022-09-28T13:01:24.754Z,17.30
2022-09-28T13:03:55.200Z,17.40
2022-09-28T13:06:45.141Z,17.50
2022-09-28T13:09:20.324Z,17.50
2022-09-28T13:12:13.867Z,17.60
2022-09-28T13:15:03.216Z,17.70
2022-09-28T13:18:12.020Z,17.90
2022-09-28T13:20:48.312Z,18.10
2022-09-28T13:23:21.384Z,18.20
2022-09-28T13:26:13.929Z,18.40
2022-09-28T13:28:43.487Z,18.70
2022-09-28T13:31:12.973Z,19.00
2022-09-28T13:33:43.941Z,19.40
2022-09-28T13:36:30.520Z,19.60
2022-09-28T13:38:59.816Z,19.80
2022-09-28T13:41:33.438Z,20.00
2022-09-28T13:44:10.960Z,20.20
2022-09-28T13:47:10.096Z,20.40
2022-09-28T13:50:15.242Z,20.40
2022-09-28T13:52:47.779Z,20.50
2022-09-28T13:55:32.905Z,20.50
2022-09-28T13:58:05.445Z,20.50
2022-09-28T14:00:45.589Z,20.40
2022-09-28T14:03:34.164Z,20.30
2022-09-28T14:06:27.927Z,20.20
2022-09-28T14:09:13.572Z,20.00
2022-09-28T14:11:44.327Z,19.90
2022-09-28T14:14:13.715Z,19.70
2022-09-28T14:16:42.293Z,19.50
2022-09-28T14:19:21.285Z,19.40
2022-09-28T14:22:13.180Z,19.30
2022-09-28T14:25:00.653Z,19.20
2022-09-28T14:27:54.035Z,19.00
2022-09-28T14:30:33.073Z,18.90
2022-09-28T14:33:02.546Z,18.80
2022-09-28T14:35:40.135Z,18.70
2022-09-28T14:38:38.441Z,18.60
2022-09-28T14:41:34.632Z,18.60
2022-09-28T14:44:16.396Z,18.60
2022-09-28T14:46:46.159Z,18.60
2022-09-28T14:49:19.829Z,18.60
2022-09-28T14:51:53.025Z,18.60
2022-09-28T14:54:26.541Z,18.60
2022-09-28T14:56:54.263Z,18.70
2022-09-28T14:59:38.599Z,18.70
2022-09-28T15:02:13.373Z,18.70
2022-09-28T15:05:06.665Z,18.60
2022-09-28T15:07:50.598Z,18.60
2022-09-28T15:10:31.299Z,18.60
2022-09-28T15:13:01.853Z,18.70
2022-09-28T15:15:36.702Z,18.70
2022-09-28T15:18:34.915Z,18.70
2022-09-28T15:21:02.634Z,18.70
2022-09-28T15:23:44.188Z,18.70
2022-09-28T15:26:29.666Z,18.70
2022-09-28T15:28:57.501Z,18.80
2022-09-28T15:31:28.359Z,18.70
2022-09-28T15:34:14.852Z,18.70
2022-09-28T15:36:46.468Z,18.80
2022-09-28T15:39:46.183Z,18.70
2022-09-28T15:42:14.557Z,18.80
2022-09-28T15:44:43.184Z,18.80
2022-09-28T15:47:24.852Z,18.80
2022-09-28T15:49:58.646Z,18.70
2022-09-28T15:52:47.097Z,18.70
2022-09-28T15:55:26.292Z,18.90
2022-09-28T15:58:07.622Z,19.10
2022-09-28T16:00:35.814Z,19.30
2022-09-28T16:03:08.322Z,19.50
2022-09-28T16:05:57.647Z,19.60
2022-09-28T16:08:32.908Z,19.90
2022-09-28T16:11:27.752Z,19.80
2022-09-28T16:14:19.520Z,19.90
2022-09-28T16:16:50.295Z,19.90
2022-09-28T16:19:32.010Z,19.90
2022-09-28T16:22:01.986Z,19.90
2022-09-28T16:24:34.008Z,19.90
2022-09-28T16:27:22.272Z,19.90
2022-09-28T16:30:24.928Z,19.80
2022-09-28T16:32:56.410Z,19.70
2022-09-28T16:35:30.344Z,19.50
2022-09-28T16:38:08.273Z,19.40
2022-09-28T16:40:40.235Z,19.30
2022-09-28T16:43:09.255Z,19.10
2022-09-28T16:45:38.057Z,19.00
2022-09-28T16:48:05.747Z,18.90
2022-09-28T16:50:33.358Z,18.70
2022-09-28T16:53:29.986Z,18.60
2022-09-28T16:55:58.668Z,18.40
2022-09-28T16:58:26.477Z,18.20
2022-09-28T17:00:54.811Z,18.10
2022-09-28T17:03:23.429Z,18.00
2022-09-28T17:05:52.077Z,17.80
2022-09-28T17:08:22.218Z,17.70
2022-09-28T17:13:45.948Z,17.40
2022-09-28T17:16:21.032Z,17.30
2022-09-28T17:18:52.673Z,17.20
2022-09-28T17:21:20.700Z,17.00
2022-09-28T17:23:50.154Z,16.90
2022-09-28T17:26:30.220Z,16.80
2022-09-28T17:28:59.411Z,16.70
2022-09-28T17:31:27.094Z,16.60
2022-09-28T17:33:54.628Z,16.40
2022-09-28T17:36:22.584Z,16.30
2022-09-28T17:38:51.746Z,16.20
2022-09-28T17:41:21.069Z,16.10
2022-09-28T17:43:49.442Z,16.00
2022-09-28T17:46:38.712Z,15.80
2022-09-28T17:49:07.660Z,15.70
2022-09-28T17:51:37.724Z,15.60
2022-09-28T17:54:08.034Z,15.50
2022-09-28T17:56:36.467Z,15.40
2022-09-28T17:59:06.773Z,15.20
2022-09-28T18:01:38.211Z,15.20
2022-09-28T18:04:08.139Z,15.10
2022-09-28T18:06:37.514Z,14.90
2022-09-28T18:09:05.380Z,14.80
2022-09-28T18:11:33.588Z,14.70
2022-09-28T18:14:01.369Z,14.60
2022-09-28T18:16:29.313Z,14.60
2022-09-28T18:18:58.190Z,14.50
2022-09-28T18:21:25.663Z,14.40
2022-09-28T18:23:53.306Z,14.30
2022-09-28T18:26:20.868Z,14.30
2022-09-28T18:28:48.301Z,14.20
2022-09-28T18:31:18.993Z,14.10
2022-09-28T18:33:48.332Z,14.00
2022-09-28T18:36:16.019Z,13.90
2022-09-28T18:38:43.453Z,13.90
2022-09-28T18:41:15.678Z,13.80
2022-09-28T18:43:49.106Z,13.70
2022-09-28T18:46:20.698Z,13.60
2022-09-28T18:48:48.300Z,13.50
2022-09-28T18:51:15.745Z,13.40
2022-09-28T18:53:43.114Z,13.30
2022-09-28T18:56:14.678Z,13.30
2022-09-28T18:58:43.696Z,13.20
2022-09-28T19:01:33.824Z,13.10
2022-09-28T19:04:03.782Z,13.00
2022-09-28T19:06:32.151Z,12.90
2022-09-28T19:08:59.889Z,12.90
2022-09-28T19:11:28.580Z,12.80
2022-09-28T19:13:56.534Z,12.70
2022-09-28T19:16:27.397Z,12.70
2022-09-28T19:18:58.952Z,12.60
2022-09-28T19:21:27.314Z,12.50
2022-09-28T19:23:55.546Z,12.40
2022-09-28T19:26:25.390Z,12.40
2022-09-28T19:28:53.507Z,12.30
2022-09-28T19:31:22.189Z,12.30
2022-09-28T19:33:50.494Z,12.20
2022-09-28T19:36:24.052Z,12.20
2022-09-28T19:38:55.477Z,12.10
2022-09-28T19:41:46.453Z,12.00
2022-09-28T19:44:25.861Z,12.00
2022-09-28T19:46:58.802Z,11.90
2022-09-28T19:49:27.865Z,11.80
2022-09-28T19:54:52.108Z,11.70
2022-09-28T19:57:19.614Z,11.60
2022-09-28T19:59:50.778Z,11.60
2022-09-28T20:02:20.424Z,11.60
2022-09-28T20:04:48.514Z,11.50
2022-09-28T20:07:16.011Z,11.40
2022-09-28T20:09:43.573Z,11.40
2022-09-28T20:12:11.189Z,11.40
2022-09-28T20:14:40.452Z,11.40
2022-09-28T20:17:09.107Z,11.40
2022-09-28T20:19:36.536Z,11.30
2022-09-28T20:22:04.390Z,11.30
2022-09-28T20:24:32.110Z,11.20
2022-09-28T20:27:01.184Z,11.20
2022-09-28T20:29:31.530Z,11.20
2022-09-28T20:31:59.317Z,11.10
2022-09-28T20:34:26.812Z,11.10
2022-09-28T20:36:54.245Z,11.00
2022-09-28T20:39:21.672Z,11.00
2022-09-28T20:41:49.386Z,11.00
2022-09-28T20:44:16.965Z,10.90
2022-09-28T20:46:44.559Z,10.90
2022-09-28T20:49:12.162Z,10.80
2022-09-28T20:51:39.589Z,10.80
2022-09-28T20:54:07.244Z,10.80
2022-09-28T20:56:38.822Z,10.70
2022-09-28T20:59:12.692Z,10.70
2022-09-28T21:01:40.714Z,10.60
2022-09-28T21:04:09.584Z,10.60
2022-09-28T21:06:39.551Z,10.60
2022-09-28T21:09:08.772Z,10.60
2022-09-28T21:11:36.467Z,10.50
2022-09-28T21:14:06.794Z,10.50
2022-09-28T21:16:35.446Z,10.50
2022-09-28T21:19:03.524Z,10.40
2022-09-28T21:21:31.438Z,10.40
2022-09-28T21:23:59.107Z,10.40
2022-09-28T21:26:28.859Z,10.30
2022-09-28T21:29:02.114Z,10.30
2022-09-28T21:31:32.879Z,10.30
2022-09-28T21:34:00.766Z,10.30
2022-09-28T21:36:28.389Z,10.20
2022-09-28T21:38:56.200Z,10.20
2022-09-28T21:41:24.699Z,10.10
2022-09-28T21:43:52.154Z,10.10
2022-09-28T21:46:19.921Z,10.00
2022-09-28T21:48:52.419Z,10.00
2022-09-28T21:51:20.450Z,10.00
2022-09-28T21:53:49.177Z,9.90
2022-09-28T21:56:17.479Z,9.90
2022-09-28T21:58:45.293Z,9.80
2022-09-28T22:01:19.556Z,9.80
2022-09-28T22:03:50.581Z,9.80
2022-09-28T22:06:21.246Z,9.70
2022-09-28T22:08:49.899Z,9.70
2022-09-28T22:11:20.138Z,9.70
2022-09-28T22:13:53.464Z,9.70
2022-09-28T22:16:24.429Z,9.60
2022-09-28T22:18:52.173Z,9.60
2022-09-28T22:21:20.678Z,9.60
2022-09-28T22:23:48.564Z,9.50
2022-09-28T22:26:21.544Z,9.50
2022-09-28T22:28:50.679Z,9.50
2022-09-28T22:31:39.130Z,9.50
2022-09-28T22:34:07.272Z,9.40
2022-09-28T22:36:35.451Z,9.40
2022-09-28T22:39:04.560Z,9.40
2022-09-28T22:41:32.559Z,9.40
2022-09-28T22:44:00.507Z,9.40
2022-09-28T22:46:31.121Z,9.40
2022-09-28T22:48:59.307Z,9.30
2022-09-28T22:51:28.185Z,9.30
2022-09-28T22:53:56.612Z,9.30
2022-09-28T22:56:25.153Z,9.30
2022-09-28T22:58:53.163Z,9.30
2022-09-28T23:01:23.536Z,9.20
2022-09-28T23:03:52.565Z,9.20
2022-09-28T23:06:22.490Z,9.20
2022-09-28T23:08:51.374Z,9.20
2022-09-28T23:11:19.754Z,9.20
2022-09-28T23:13:51.911Z,9.10
2022-09-28T23:16:20.286Z,9.10
2022-09-28T23:18:49.244Z,9.10
2022-09-28T23:21:19.839Z,9.10
2022-09-28T23:23:55.623Z,9.00
2022-09-28T23:26:26.591Z,9.00
2022-09-28T23:28:54.614Z,9.00
2022-09-28T23:31:28.405Z,8.90
2022-09-28T23:34:06.150Z,8.90
2022-09-28T23:36:34.534Z,8.90
2022-09-28T23:39:02.410Z,8.90
2022-09-28T23:41:30.510Z,8.90
2022-09-28T23:43:58.045Z,8.90
2022-09-28T23:46:25.538Z,8.90
2022-09-28T23:48:53.045Z,8.90
2022-09-28T23:51:20.668Z,8.90
2022-09-28T23:53:48.205Z,8.90
2022-09-28T23:56:15.738Z,8.90
2022-09-28T23:58:43.221Z,8.90
